Geneva, MN (56035)

10:12 PM CDT on October 20, 2014 (GMT -0500)
South Geneva Lake | Change Station
CLOSE
Current Station
Personal Weather Station
Location: Hollandale, MN
Elevation: 1207 ft
Nearby Weather Stations

Elev 1207 ft 43.77 °N, 93.27 °W | Updated 18 seconds ago

Clear
Clear
46.1 °F
Feels Like 46 °F
N
0.9
Wind Variable Wind from WNW
Gusts 2.3 mph

Today
High -- | Low -- °F
--% Chance of Precip.
Yesterday
High -- | Low -- °F
Precip. -- in
7:33 AM 6:21 PM
Waning Crescent, 8% visible
Pressure 30.04 in
Visibility 10.0 miles
Clouds Clear
Windchill 46 °F
Dew Point 40 °F
Humidity 79%
Rainfall 0.00 in
Snow Depth Not available.
UV 0 out of 12
Pollen 1.80 out of 12
Air Quality Not available.
Flu Activity Sporadic
METAR KAEL 210235Z AUTO 00000KT 10SM CLR 09/04 A3004 RMK AO2

More Conditions Fewer Conditions

Pressure 30.04 in
Visibility 10.0 miles
Clouds Clear
Windchill 46 °F
Dew Point 40 °F
Humidity 79%
Rainfall 0.00 in
Snow Depth Not available.
UV 0 out of 12
Pollen 1.80 out of 12
Air Quality Not available.
Flu Activity Sporadic
METAR KAEL 210235Z AUTO 00000KT 10SM CLR 09/04 A3004 RMK AO2

More Conditions Fewer Conditions

10-Day Weather Forecast

Almanac

Astronomy

Oct. 20, 2014 Rise Set
Actual Time 7:33 AM CDT 6:21 PM CDT
Civil Twilight 7:04 AM CDT 6:50 PM CDT
Nautical Twilight 6:31 AM CDT 7:23 PM CDT
Astronomical Twilight 5:57 AM CDT 7:57 PM CDT
Moon 4:16 AM CDT (10/20) 4:49 PM CDT (10/20)
Length of Visible Light 11h 45m
Length of Day
10h 47m
Tomorrow will be 2m 51s shorter.
Waning Crescent, 8% of the Moon is Illuminated
Today
Waning Crescent
Oct 23
New
Oct 30
First Quarter
Nov 6
Full
Nov 14
Last Quarter

Today's Extremes

State Highs State Lows

Community

WunderPhotos

Upload Photos

1,763,589 photos uploaded!

Nearby

Snow Depth

Station Depth Elevation
No new snow has been reported.

Earthquake Activity

City Distance Mag. Time & Date
No recent earthquake activity has been reported nearby.
Minimum magnitude displayed is 2.5.

Coastal Water Temperatures

Place Temperature
No Stations Reporting

Nearby Weather Stations